Search for airport 
image banner adimage banner ad
image banner ad

LEBT - Valencia/Betera

Located in Valencia, Spain

ICAO - , IATA -

Data provided by Airmate  

General information

Coordinates: N39°37'28" W0°28'20"
Elevation is 416 feet MSL.
Magnetic variation is 0° East
View others Airports in Valencia

Operational data

Open for public use
Current time UTC:
Current local time:
Weather
METAR: LEBT 230700Z AUTO 26007KT 200V310 CAVOK 09/02 Q1014
View NOTAMs / SUP AIP / TFR affecting this airport [VIEW]
Communications frequencies: [VIEW]

Runways:

Airport contact information

Address: Valencia Spain

Satellite view of LEBT